sensor_id;sensor_type;location;lat;lon;timestamp;pressure;altitude;pressure_sealevel;temperature;humidity
59104;BME280;51449;51.676;5.812;2023-04-30T00:01:07;102284.00;;;9.59;69.40
59104;BME280;51449;51.676;5.812;2023-04-30T00:03:29;102275.50;;;9.55;69.51
59104;BME280;51449;51.676;5.812;2023-04-30T00:05:50;102279.38;;;9.54;69.59
59104;BME280;51449;51.676;5.812;2023-04-30T00:08:12;102267.56;;;9.54;69.28
59104;BME280;51449;51.676;5.812;2023-04-30T00:10:34;102273.88;;;9.54;69.15
59104;BME280;51449;51.676;5.812;2023-04-30T00:12:55;102271.97;;;9.50;69.77
59104;BME280;51449;51.676;5.812;2023-04-30T00:15:17;102268.16;;;9.46;69.42
59104;BME280;51449;51.676;5.812;2023-04-30T00:17:39;102275.88;;;9.43;69.40
59104;BME280;51449;51.676;5.812;2023-04-30T00:20:01;102278.63;;;9.43;69.33
59104;BME280;51449;51.676;5.812;2023-04-30T00:22:23;102280.88;;;9.41;69.80
59104;BME280;51449;51.676;5.812;2023-04-30T00:24:45;102275.13;;;9.38;69.70
59104;BME280;51449;51.676;5.812;2023-04-30T00:27:07;102273.78;;;9.35;69.79
59104;BME280;51449;51.676;5.812;2023-04-30T00:29:29;102274.38;;;9.32;69.70
59104;BME280;51449;51.676;5.812;2023-04-30T00:31:51;102283.69;;;9.31;69.54
59104;BME280;51449;51.676;5.812;2023-04-30T00:34:13;102276.56;;;9.30;69.68
59104;BME280;51449;51.676;5.812;2023-04-30T00:36:35;102282.34;;;9.29;69.52
59104;BME280;51449;51.676;5.812;2023-04-30T00:38:57;102282.13;;;9.25;69.86
59104;BME280;51449;51.676;5.812;2023-04-30T00:41:19;102279.97;;;9.22;69.56
59104;BME280;51449;51.676;5.812;2023-04-30T00:43:42;102273.94;;;9.20;69.71
59104;BME280;51449;51.676;5.812;2023-04-30T00:46:04;102284.38;;;9.18;69.85
59104;BME280;51449;51.676;5.812;2023-04-30T00:48:27;102280.00;;;9.17;69.95
59104;BME280;51449;51.676;5.812;2023-04-30T00:50:49;102282.22;;;9.15;69.63
59104;BME280;51449;51.676;5.812;2023-04-30T00:53:11;102282.22;;;9.15;69.85
59104;BME280;51449;51.676;5.812;2023-04-30T00:55:33;102282.22;;;9.15;70.07
59104;BME280;51449;51.676;5.812;2023-04-30T00:57:55;102272.63;;;9.12;69.99
59104;BME280;51449;51.676;5.812;2023-04-30T01:00:17;102278.94;;;9.13;70.25
59104;BME280;51449;51.676;5.812;2023-04-30T01:02:39;102280.34;;;9.10;70.06
59104;BME280;51449;51.676;5.812;2023-04-30T01:05:02;102281.41;;;9.09;70.01
59104;BME280;51449;51.676;5.812;2023-04-30T01:07:26;102283.94;;;9.06;70.29
59104;BME280;51449;51.676;5.812;2023-04-30T01:09:48;102275.44;;;9.02;69.97
59104;BME280;51449;51.676;5.812;2023-04-30T01:12:36;102280.41;;;9.00;70.02
59104;BME280;51449;51.676;5.812;2023-04-30T01:15:12;102291.75;;;8.93;69.73
59104;BME280;51449;51.676;5.812;2023-04-30T01:17:49;102292.31;;;8.90;69.89
59104;BME280;51449;51.676;5.812;2023-04-30T01:20:20;102297.53;;;8.87;69.87
59104;BME280;51449;51.676;5.812;2023-04-30T01:22:51;102289.34;;;8.82;69.84
59104;BME280;51449;51.676;5.812;2023-04-30T01:28:02;102284.50;;;8.68;69.92
59104;BME280;51449;51.676;5.812;2023-04-30T01:30:24;102278.47;;;8.66;69.93
59104;BME280;51449;51.676;5.812;2023-04-30T01:32:47;102284.25;;;8.65;70.33
59104;BME280;51449;51.676;5.812;2023-04-30T01:35:09;102282.59;;;8.64;70.48
59104;BME280;51449;51.676;5.812;2023-04-30T01:37:40;102280.13;;;8.62;70.71
59104;BME280;51449;51.676;5.812;2023-04-30T01:40:39;102278.78;;;8.60;70.79
59104;BME280;51449;51.676;5.812;2023-04-30T01:43:13;102281.53;;;8.60;70.62
59104;BME280;51449;51.676;5.812;2023-04-30T01:46:11;102282.91;;;8.57;70.71
59104;BME280;51449;51.676;5.812;2023-04-30T01:51:32;102276.09;;;8.49;70.42
59104;BME280;51449;51.676;5.812;2023-04-30T01:54:37;102289.56;;;8.46;70.05
59104;BME280;51449;51.676;5.812;2023-04-30T01:57:06;102281.63;;;8.39;70.79
59104;BME280;51449;51.676;5.812;2023-04-30T01:59:38;102294.00;;;8.36;71.05
59104;BME280;51449;51.676;5.812;2023-04-30T02:02:00;102296.19;;;8.34;71.49
59104;BME280;51449;51.676;5.812;2023-04-30T02:04:22;102292.09;;;8.32;71.02
59104;BME280;51449;51.676;5.812;2023-04-30T02:06:44;102295.69;;;8.27;70.63
59104;BME280;51449;51.676;5.812;2023-04-30T02:09:06;102291.59;;;8.25;70.79
59104;BME280;51449;51.676;5.812;2023-04-30T02:11:28;102289.91;;;8.24;70.85
59104;BME280;51449;51.676;5.812;2023-04-30T02:13:50;102291.84;;;8.23;71.21
59104;BME280;51449;51.676;5.812;2023-04-30T02:16:12;102291.31;;;8.21;71.37
59104;BME280;51449;51.676;5.812;2023-04-30T02:18:33;102285.81;;;8.21;71.48
59104;BME280;51449;51.676;5.812;2023-04-30T02:20:55;102292.41;;;8.20;71.13
59104;BME280;51449;51.676;5.812;2023-04-30T02:23:17;102290.75;;;8.19;71.47
59104;BME280;51449;51.676;5.812;2023-04-30T02:25:38;102291.88;;;8.18;71.44
59104;BME280;51449;51.676;5.812;2023-04-30T02:28:00;102294.06;;;8.16;71.56
59104;BME280;51449;51.676;5.812;2023-04-30T02:30:22;102289.97;;;8.13;71.41
59104;BME280;51449;51.676;5.812;2023-04-30T02:32:44;102287.78;;;8.10;71.24
59104;BME280;51449;51.676;5.812;2023-04-30T02:35:05;102288.38;;;8.07;71.48
59104;BME280;51449;51.676;5.812;2023-04-30T02:37:27;102285.34;;;8.04;71.39
59104;BME280;51449;51.676;5.812;2023-04-30T02:39:50;102282.06;;;8.02;71.46
59104;BME280;51449;51.676;5.812;2023-04-30T02:42:12;102283.44;;;7.99;71.59
59104;BME280;51449;51.676;5.812;2023-04-30T02:44:34;102284.28;;;7.94;71.02
59104;BME280;51449;51.676;5.812;2023-04-30T02:46:58;102276.59;;;7.91;71.66
59104;BME280;51449;51.676;5.812;2023-04-30T02:49:19;102273.31;;;7.89;71.73
59104;BME280;51449;51.676;5.812;2023-04-30T02:51:41;102274.69;;;7.87;71.58
59104;BME280;51449;51.676;5.812;2023-04-30T02:54:03;102272.25;;;7.85;71.77
59104;BME280;51449;51.676;5.812;2023-04-30T02:56:25;102282.38;;;7.85;71.91
59104;BME280;51449;51.676;5.812;2023-04-30T02:58:47;102279.13;;;7.83;71.89
59104;BME280;51449;51.676;5.812;2023-04-30T03:01:08;102283.53;;;7.79;71.70
59104;BME280;51449;51.676;5.812;2023-04-30T03:03:30;102277.50;;;7.71;71.57
59104;BME280;51449;51.676;5.812;2023-04-30T03:05:52;102279.97;;;7.68;71.65
59104;BME280;51449;51.676;5.812;2023-04-30T03:08:17;102281.88;;;7.67;71.97
59104;BME280;51449;51.676;5.812;2023-04-30T03:10:38;102289.56;;;7.65;72.09
59104;BME280;51449;51.676;5.812;2023-04-30T03:13:00;102283.84;;;7.62;71.64
59104;BME280;51449;51.676;5.812;2023-04-30T03:15:21;102282.75;;;7.58;72.08
59104;BME280;51449;51.676;5.812;2023-04-30T03:17:43;102280.28;;;7.56;72.50
59104;BME280;51449;51.676;5.812;2023-04-30T03:20:07;102284.94;;;7.56;72.11
59104;BME280;51449;51.676;5.812;2023-04-30T03:22:29;102278.94;;;7.54;72.16
59104;BME280;51449;51.676;5.812;2023-04-30T03:24:51;102281.94;;;7.52;72.14
59104;BME280;51449;51.676;5.812;2023-04-30T03:27:12;102280.56;;;7.49;72.38
59104;BME280;51449;51.676;5.812;2023-04-30T03:29:34;102280.03;;;7.47;72.63
59104;BME280;51449;51.676;5.812;2023-04-30T03:31:56;102280.84;;;7.48;72.83
59104;BME280;51449;51.676;5.812;2023-04-30T03:34:18;102282.19;;;7.50;73.03
59104;BME280;51449;51.676;5.812;2023-04-30T03:36:39;102274.25;;;7.49;72.78
59104;BME280;51449;51.676;5.812;2023-04-30T03:39:02;102275.91;;;7.50;72.84
59104;BME280;51449;51.676;5.812;2023-04-30T03:41:24;102284.38;;;7.48;72.98
59104;BME280;51449;51.676;5.812;2023-04-30T03:43:46;102286.88;;;7.50;73.10
59104;BME280;51449;51.676;5.812;2023-04-30T03:46:08;102289.06;;;7.48;73.52
59104;BME280;51449;51.676;5.812;2023-04-30T03:48:30;102290.72;;;7.49;72.69
59104;BME280;51449;51.676;5.812;2023-04-30T03:50:51;102296.22;;;7.49;72.96
59104;BME280;51449;51.676;5.812;2023-04-30T03:53:13;102292.63;;;7.48;73.26
59104;BME280;51449;51.676;5.812;2023-04-30T03:55:35;102295.66;;;7.47;73.35
59104;BME280;51449;51.676;5.812;2023-04-30T03:57:57;102292.63;;;7.48;73.05
59104;BME280;51449;51.676;5.812;2023-04-30T04:00:19;102298.41;;;7.47;73.13
59104;BME280;51449;51.676;5.812;2023-04-30T04:02:45;102299.22;;;7.47;73.04
59104;BME280;51449;51.676;5.812;2023-04-30T04:05:07;102291.25;;;7.46;73.24
59104;BME280;51449;51.676;5.812;2023-04-30T04:07:29;102295.66;;;7.47;73.25
59104;BME280;51449;51.676;5.812;2023-04-30T04:09:51;102291.25;;;7.46;73.13
59104;BME280;51449;51.676;5.812;2023-04-30T04:12:13;102293.47;;;7.44;73.18
59104;BME280;51449;51.676;5.812;2023-04-30T04:14:35;102290.44;;;7.45;73.33
59104;BME280;51449;51.676;5.812;2023-04-30T04:16:57;102287.16;;;7.43;72.94
59104;BME280;51449;51.676;5.812;2023-04-30T04:19:20;102288.25;;;7.42;73.14
59104;BME280;51449;51.676;5.812;2023-04-30T04:21:42;102289.38;;;7.41;73.11
59104;BME280;51449;51.676;5.812;2023-04-30T04:24:08;102284.16;;;7.40;73.32
59104;BME280;51449;51.676;5.812;2023-04-30T04:26:30;102288.53;;;7.41;72.86
59104;BME280;51449;51.676;5.812;2023-04-30T04:28:52;102297.03;;;7.39;73.30
59104;BME280;51449;51.676;5.812;2023-04-30T04:31:14;102287.44;;;7.37;73.36
59104;BME280;51449;51.676;5.812;2023-04-30T04:33:36;102293.75;;;7.37;72.86
59104;BME280;51449;51.676;5.812;2023-04-30T04:35:58;102289.09;;;7.38;73.50
59104;BME280;51449;51.676;5.812;2023-04-30T04:38:20;102292.38;;;7.40;73.83
59104;BME280;51449;51.676;5.812;2023-04-30T04:40:50;102287.16;;;7.43;73.79
59104;BME280;51449;51.676;5.812;2023-04-30T04:43:16;102296.75;;;7.46;73.38
59104;BME280;51449;51.676;5.812;2023-04-30T04:45:38;102297.28;;;7.48;73.78
59104;BME280;51449;51.676;5.812;2023-04-30T04:48:01;102304.13;;;7.50;73.92
59104;BME280;51449;51.676;5.812;2023-04-30T04:50:23;102301.94;;;7.53;73.74
59104;BME280;51449;51.676;5.812;2023-04-30T04:52:45;102298.63;;;7.56;73.24
59104;BME280;51449;51.676;5.812;2023-04-30T04:55:07;102297.25;;;7.58;73.34
59104;BME280;51449;51.676;5.812;2023-04-30T04:57:30;102305.78;;;7.62;73.50
59104;BME280;51449;51.676;5.812;2023-04-30T04:59:52;102300.53;;;7.65;73.90
59104;BME280;51449;51.676;5.812;2023-04-30T05:02:14;102304.38;;;7.69;73.83
59104;BME280;51449;51.676;5.812;2023-04-30T05:04:36;102313.41;;;7.75;73.69
59104;BME280;51449;51.676;5.812;2023-04-30T05:06:58;102308.75;;;7.81;73.60
59104;BME280;51449;51.676;5.812;2023-04-30T05:09:19;102310.38;;;7.87;73.93
59104;BME280;51449;51.676;5.812;2023-04-30T05:11:41;102308.97;;;7.94;73.82
59104;BME280;51449;51.676;5.812;2023-04-30T05:14:04;102319.66;;;8.01;73.76
59104;BME280;51449;51.676;5.812;2023-04-30T05:16:26;102314.69;;;8.08;74.01
59104;BME280;51449;51.676;5.812;2023-04-30T05:18:48;102320.72;;;8.15;74.04
59104;BME280;51449;51.676;5.812;2023-04-30T05:21:10;102328.34;;;8.24;74.12
59104;BME280;51449;51.676;5.812;2023-04-30T05:23:32;102323.38;;;8.31;74.02
59104;BME280;51449;51.676;5.812;2023-04-30T05:25:53;102324.47;;;8.40;73.65
59104;BME280;51449;51.676;5.812;2023-04-30T05:28:15;102320.63;;;8.46;74.23
59104;BME280;51449;51.676;5.812;2023-04-30T05:30:37;102312.88;;;8.53;74.20
59104;BME280;51449;51.676;5.812;2023-04-30T05:32:59;102323.28;;;8.62;74.44
59104;BME280;51449;51.676;5.812;2023-04-30T05:35:21;102321.31;;;8.67;74.64
59104;BME280;51449;51.676;5.812;2023-04-30T05:37:43;102319.88;;;8.75;74.95
59104;BME280;51449;51.676;5.812;2023-04-30T05:40:06;102314.88;;;8.82;75.19
59104;BME280;51449;51.676;5.812;2023-04-30T05:42:29;102309.34;;;8.87;75.05
59104;BME280;51449;51.676;5.812;2023-04-30T05:44:50;102318.38;;;8.98;75.04
59104;BME280;51449;51.676;5.812;2023-04-30T05:47:12;102317.75;;;9.06;75.03
59104;BME280;51449;51.676;5.812;2023-04-30T05:49:34;102308.06;;;9.14;75.10
59104;BME280;51449;51.676;5.812;2023-04-30T05:51:56;102314.88;;;9.21;74.92
59104;BME280;51449;51.676;5.812;2023-04-30T05:54:18;102306.00;;;9.30;75.09
59104;BME280;51449;51.676;5.812;2023-04-30T05:56:40;102316.09;;;9.39;74.84
59104;BME280;51449;51.676;5.812;2023-04-30T05:59:02;102304.47;;;9.48;75.01
59104;BME280;51449;51.676;5.812;2023-04-30T06:01:24;102306.56;;;9.56;75.15
59104;BME280;51449;51.676;5.812;2023-04-30T06:03:46;102297.72;;;9.64;74.85
59104;BME280;51449;51.676;5.812;2023-04-30T06:06:07;102301.75;;;9.72;74.44
59104;BME280;51449;51.676;5.812;2023-04-30T06:08:29;102301.41;;;9.78;74.67
59104;BME280;51449;51.676;5.812;2023-04-30T06:10:51;102302.97;;;9.84;74.71
59104;BME280;51449;51.676;5.812;2023-04-30T06:13:13;102299.59;;;9.93;74.63
59104;BME280;51449;51.676;5.812;2023-04-30T06:15:35;102304.97;;;10.03;74.29
59104;BME280;51449;51.676;5.812;2023-04-30T06:17:57;102300.47;;;10.12;74.29
59104;BME280;51449;51.676;5.812;2023-04-30T06:20:19;102314.41;;;10.21;74.17
59104;BME280;51449;51.676;5.812;2023-04-30T06:22:41;102307.69;;;10.32;73.91
59104;BME280;51449;51.676;5.812;2023-04-30T06:25:03;102304.25;;;10.40;73.62
59104;BME280;51449;51.676;5.812;2023-04-30T06:27:25;102307.25;;;10.44;73.10
59104;BME280;51449;51.676;5.812;2023-04-30T06:29:53;102307.72;;;10.51;73.08
59104;BME280;51449;51.676;5.812;2023-04-30T06:32:15;102302.06;;;10.61;72.97
59104;BME280;51449;51.676;5.812;2023-04-30T06:34:37;102308.22;;;10.72;72.68
59104;BME280;51449;51.676;5.812;2023-04-30T06:36:59;102307.78;;;10.84;72.59
59104;BME280;51449;51.676;5.812;2023-04-30T06:39:21;102303.22;;;10.93;72.35
59104;BME280;51449;51.676;5.812;2023-04-30T06:41:43;102298.06;;;11.05;72.09
59104;BME280;51449;51.676;5.812;2023-04-30T06:44:05;102294.53;;;11.19;71.85
59104;BME280;51449;51.676;5.812;2023-04-30T06:46:27;102302.31;;;11.30;71.49
59104;BME280;51449;51.676;5.812;2023-04-30T06:48:50;102303.81;;;11.42;71.02
59104;BME280;51449;51.676;5.812;2023-04-30T06:51:12;102309.94;;;11.52;70.33
59104;BME280;51449;51.676;5.812;2023-04-30T06:53:33;102303.66;;;11.66;70.03
59104;BME280;51449;51.676;5.812;2023-04-30T06:55:55;102304.25;;;11.76;69.79
59104;BME280;51449;51.676;5.812;2023-04-30T06:58:17;102311.53;;;11.86;69.28
59104;BME280;51449;51.676;5.812;2023-04-30T07:00:40;102314.44;;;11.95;68.23
59104;BME280;51449;51.676;5.812;2023-04-30T07:03:02;102306.53;;;12.02;67.83
59104;BME280;51449;51.676;5.812;2023-04-30T07:05:25;102309.94;;;12.13;68.05
59104;BME280;51449;51.676;5.812;2023-04-30T07:07:47;102314.72;;;12.21;67.63
59104;BME280;51449;51.676;5.812;2023-04-30T07:10:09;102305.09;;;12.32;67.53
59104;BME280;51449;51.676;5.812;2023-04-30T07:12:31;102309.88;;;12.40;66.50
59104;BME280;51449;51.676;5.812;2023-04-30T07:14:53;102309.16;;;12.49;66.29
59104;BME280;51449;51.676;5.812;2023-04-30T07:17:15;102312.81;;;12.58;66.51
59104;BME280;51449;51.676;5.812;2023-04-30T07:19:37;102317.28;;;12.68;66.26
59104;BME280;51449;51.676;5.812;2023-04-30T07:21:59;102310.22;;;12.75;66.04
59104;BME280;51449;51.676;5.812;2023-04-30T07:24:21;102312.75;;;12.85;65.47
59104;BME280;51449;51.676;5.812;2023-04-30T07:26:43;102313.13;;;12.93;65.37
59104;BME280;51449;51.676;5.812;2023-04-30T07:29:05;102308.00;;;13.00;65.39
59104;BME280;51449;51.676;5.812;2023-04-30T07:31:27;102308.16;;;13.03;65.43
59104;BME280;51449;51.676;5.812;2023-04-30T07:33:49;102314.06;;;13.11;64.85
59104;BME280;51449;51.676;5.812;2023-04-30T07:36:11;102311.88;;;13.21;65.25
59104;BME280;51449;51.676;5.812;2023-04-30T07:38:33;102307.06;;;13.27;64.80
59104;BME280;51449;51.676;5.812;2023-04-30T07:40:54;102303.34;;;13.32;64.61
59104;BME280;51449;51.676;5.812;2023-04-30T07:43:16;102305.66;;;13.38;64.46
59104;BME280;51449;51.676;5.812;2023-04-30T07:45:38;102297.09;;;13.48;63.97
59104;BME280;51449;51.676;5.812;2023-04-30T07:48:00;102301.06;;;13.65;63.90
59104;BME280;51449;51.676;5.812;2023-04-30T07:50:22;102298.22;;;13.79;63.62
59104;BME280;51449;51.676;5.812;2023-04-30T07:52:44;102299.22;;;13.91;63.29
59104;BME280;51449;51.676;5.812;2023-04-30T07:55:06;102303.66;;;14.01;63.26
59104;BME280;51449;51.676;5.812;2023-04-30T07:57:28;102296.88;;;14.16;63.29
59104;BME280;51449;51.676;5.812;2023-04-30T07:59:52;102306.69;;;14.31;63.24
59104;BME280;51449;51.676;5.812;2023-04-30T08:02:15;102306.53;;;14.36;62.14
59104;BME280;51449;51.676;5.812;2023-04-30T08:04:37;102303.94;;;14.40;61.98
59104;BME280;51449;51.676;5.812;2023-04-30T08:06:58;102307.38;;;14.45;61.65
59104;BME280;51449;51.676;5.812;2023-04-30T08:09:20;102315.03;;;14.48;61.72
59104;BME280;51449;51.676;5.812;2023-04-30T08:11:42;102313.91;;;14.49;61.34
59104;BME280;51449;51.676;5.812;2023-04-30T08:14:04;102306.09;;;14.60;61.62
59104;BME280;51449;51.676;5.812;2023-04-30T08:16:27;102304.81;;;14.66;60.92
59104;BME280;51449;51.676;5.812;2023-04-30T08:18:49;102310.53;;;14.70;61.07
59104;BME280;51449;51.676;5.812;2023-04-30T08:21:11;102306.28;;;14.81;61.12
59104;BME280;51449;51.676;5.812;2023-04-30T08:23:34;102304.97;;;14.96;60.67
59104;BME280;51449;51.676;5.812;2023-04-30T08:25:55;102304.16;;;14.95;59.66
59104;BME280;51449;51.676;5.812;2023-04-30T08:28:17;102314.59;;;14.98;59.76
59104;BME280;51449;51.676;5.812;2023-04-30T08:30:39;102307.75;;;14.96;59.23
59104;BME280;51449;51.676;5.812;2023-04-30T08:33:01;102312.47;;;15.04;59.70
59104;BME280;51449;51.676;5.812;2023-04-30T08:35:23;102323.72;;;15.16;59.94
59104;BME280;51449;51.676;5.812;2023-04-30T08:37:45;102315.56;;;15.20;58.98
59104;BME280;51449;51.676;5.812;2023-04-30T08:40:07;102316.84;;;15.31;59.04
59104;BME280;51449;51.676;5.812;2023-04-30T08:42:35;102308.81;;;15.47;58.91
59104;BME280;51449;51.676;5.812;2023-04-30T08:44:59;102305.50;;;15.62;58.30
59104;BME280;51449;51.676;5.812;2023-04-30T08:47:22;102307.94;;;15.64;56.81
59104;BME280;51449;51.676;5.812;2023-04-30T08:49:46;102300.78;;;15.63;57.19
59104;BME280;51449;51.676;5.812;2023-04-30T08:52:08;102301.91;;;15.71;57.10
59104;BME280;51449;51.676;5.812;2023-04-30T08:54:30;102301.19;;;15.82;57.60
59104;BME280;51449;51.676;5.812;2023-04-30T08:56:54;102301.59;;;16.02;57.93
59104;BME280;51449;51.676;5.812;2023-04-30T08:59:15;102301.25;;;16.12;56.34
59104;BME280;51449;51.676;5.812;2023-04-30T09:01:37;102292.34;;;16.19;56.27
59104;BME280;51449;51.676;5.812;2023-04-30T09:04:02;102299.69;;;16.23;55.92
59104;BME280;51449;51.676;5.812;2023-04-30T09:06:25;102293.63;;;16.21;56.42
59104;BME280;51449;51.676;5.812;2023-04-30T09:08:48;102303.44;;;16.27;56.44
59104;BME280;51449;51.676;5.812;2023-04-30T09:13:45;102291.69;;;16.43;56.21
59104;BME280;51449;51.676;5.812;2023-04-30T09:16:07;102297.34;;;16.55;55.15
59104;BME280;51449;51.676;5.812;2023-04-30T09:18:38;102289.16;;;16.59;54.22
59104;BME280;51449;51.676;5.812;2023-04-30T09:21:02;102293.53;;;16.60;54.16
59104;BME280;51449;51.676;5.812;2023-04-30T09:23:24;102278.19;;;16.75;54.50
59104;BME280;51449;51.676;5.812;2023-04-30T09:25:46;102286.78;;;16.90;54.07
59104;BME280;51449;51.676;5.812;2023-04-30T09:28:09;102281.59;;;17.01;53.14
59104;BME280;51449;51.676;5.812;2023-04-30T09:30:32;102281.03;;;17.08;52.74
59104;BME280;51449;51.676;5.812;2023-04-30T09:32:55;102287.44;;;17.08;52.47
59104;BME280;51449;51.676;5.812;2023-04-30T09:35:31;102275.47;;;17.08;53.06
59104;BME280;51449;51.676;5.812;2023-04-30T09:37:54;102278.38;;;17.11;53.20
59104;BME280;51449;51.676;5.812;2023-04-30T09:40:16;102276.16;;;17.05;52.85
59104;BME280;51449;51.676;5.812;2023-04-30T09:42:38;102278.84;;;17.14;52.91
59104;BME280;51449;51.676;5.812;2023-04-30T09:45:03;102271.94;;;17.20;53.13
59104;BME280;51449;51.676;5.812;2023-04-30T09:47:28;102271.72;;;17.37;53.01
59104;BME280;51449;51.676;5.812;2023-04-30T09:49:52;102269.66;;;17.46;52.18
59104;BME280;51449;51.676;5.812;2023-04-30T09:52:14;102268.41;;;17.56;51.82
59104;BME280;51449;51.676;5.812;2023-04-30T09:54:37;102260.84;;;17.69;51.58
59104;BME280;51449;51.676;5.812;2023-04-30T09:57:00;102266.53;;;17.72;50.75
59104;BME280;51449;51.676;5.812;2023-04-30T09:59:33;102266.28;;;17.65;50.73
59104;BME280;51449;51.676;5.812;2023-04-30T10:02:01;102251.44;;;17.61;51.04
59104;BME280;51449;51.676;5.812;2023-04-30T10:04:26;102255.53;;;17.76;51.37
59104;BME280;51449;51.676;5.812;2023-04-30T10:06:56;102249.41;;;17.95;50.17
59104;BME280;51449;51.676;5.812;2023-04-30T10:09:20;102253.94;;;18.00;48.85
59104;BME280;51449;51.676;5.812;2023-04-30T10:11:45;102247.75;;;17.94;47.63
59104;BME280;51449;51.676;5.812;2023-04-30T10:14:12;102245.44;;;17.96;48.40
59104;BME280;51449;51.676;5.812;2023-04-30T10:16:46;102242.53;;;18.05;48.30
59104;BME280;51449;51.676;5.812;2023-04-30T10:19:19;102231.47;;;18.08;47.99
59104;BME280;51449;51.676;5.812;2023-04-30T10:21:46;102237.84;;;18.21;48.67
59104;BME280;51449;51.676;5.812;2023-04-30T10:24:09;102233.50;;;18.36;48.42
59104;BME280;51449;51.676;5.812;2023-04-30T10:26:34;102234.44;;;18.40;48.89
59104;BME280;51449;51.676;5.812;2023-04-30T10:28:57;102238.25;;;18.48;48.52
59104;BME280;51449;51.676;5.812;2023-04-30T10:31:22;102238.31;;;18.64;47.58
59104;BME280;51449;51.676;5.812;2023-04-30T10:34:13;102230.19;;;18.58;47.31
59104;BME280;51449;51.676;5.812;2023-04-30T10:37:04;102230.22;;;18.74;48.15
59104;BME280;51449;51.676;5.812;2023-04-30T10:39:34;102226.00;;;18.93;47.52
59104;BME280;51449;51.676;5.812;2023-04-30T10:42:02;102223.34;;;19.12;46.80
59104;BME280;51449;51.676;5.812;2023-04-30T10:44:25;102222.81;;;19.22;46.04
59104;BME280;51449;51.676;5.812;2023-04-30T10:46:48;102223.44;;;19.32;45.58
59104;BME280;51449;51.676;5.812;2023-04-30T10:49:10;102210.63;;;19.31;45.56
59104;BME280;51449;51.676;5.812;2023-04-30T10:51:49;102210.19;;;19.44;45.93
59104;BME280;51449;51.676;5.812;2023-04-30T10:54:15;102204.44;;;19.53;45.29
59104;BME280;51449;51.676;5.812;2023-04-30T10:56:45;102214.94;;;19.60;45.13
59104;BME280;51449;51.676;5.812;2023-04-30T10:59:08;102208.28;;;19.64;45.13
59104;BME280;51449;51.676;5.812;2023-04-30T11:01:29;102205.06;;;19.46;44.58
59104;BME280;51449;51.676;5.812;2023-04-30T11:04:08;102200.53;;;19.42;44.63
59104;BME280;51449;51.676;5.812;2023-04-30T11:07:07;102200.19;;;19.28;45.36
59104;BME280;51449;51.676;5.812;2023-04-30T11:09:43;102202.59;;;18.97;45.26
59104;BME280;51449;51.676;5.812;2023-04-30T11:12:12;102194.09;;;18.94;46.05
59104;BME280;51449;51.676;5.812;2023-04-30T11:14:40;102189.34;;;19.10;45.79
59104;BME280;51449;51.676;5.812;2023-04-30T11:17:03;102182.97;;;19.10;46.31
59104;BME280;51449;51.676;5.812;2023-04-30T11:19:26;102185.38;;;18.95;46.13
59104;BME280;51449;51.676;5.812;2023-04-30T11:27:25;102179.00;;;19.42;46.16
59104;BME280;51449;51.676;5.812;2023-04-30T11:29:48;102177.00;;;19.59;45.54
59104;BME280;51449;51.676;5.812;2023-04-30T11:32:15;102178.44;;;19.69;45.28
59104;BME280;51449;51.676;5.812;2023-04-30T11:34:39;102177.81;;;19.59;44.60
59104;BME280;51449;51.676;5.812;2023-04-30T11:37:03;102174.94;;;19.56;44.15
59104;BME280;51449;51.676;5.812;2023-04-30T11:39:27;102169.06;;;19.45;44.66
59104;BME280;51449;51.676;5.812;2023-04-30T11:41:50;102167.19;;;19.49;44.54
59104;BME280;51449;51.676;5.812;2023-04-30T11:44:27;102163.47;;;19.61;44.34
59104;BME280;51449;51.676;5.812;2023-04-30T11:46:50;102156.91;;;19.37;44.76
59104;BME280;51449;51.676;5.812;2023-04-30T11:49:12;102151.59;;;19.32;44.09
59104;BME280;51449;51.676;5.812;2023-04-30T11:51:35;102156.19;;;19.24;44.13
59104;BME280;51449;51.676;5.812;2023-04-30T11:53:56;102162.03;;;19.35;44.42
59104;BME280;51449;51.676;5.812;2023-04-30T11:56:22;102156.72;;;19.46;44.45
59104;BME280;51449;51.676;5.812;2023-04-30T11:58:46;102153.38;;;19.40;43.92
59104;BME280;51449;51.676;5.812;2023-04-30T12:01:09;102136.16;;;19.54;44.25
59104;BME280;51449;51.676;5.812;2023-04-30T12:03:32;102144.31;;;19.79;44.50
59104;BME280;51449;51.676;5.812;2023-04-30T12:06:00;102146.41;;;20.01;44.23
59104;BME280;51449;51.676;5.812;2023-04-30T12:08:22;102143.88;;;20.12;44.29
59104;BME280;51449;51.676;5.812;2023-04-30T12:10:44;102142.31;;;20.15;43.20
59104;BME280;51449;51.676;5.812;2023-04-30T12:13:06;102147.34;;;19.89;43.27
59104;BME280;51449;51.676;5.812;2023-04-30T12:15:28;102141.44;;;19.59;43.47
59104;BME280;51449;51.676;5.812;2023-04-30T12:17:50;102139.88;;;19.27;43.96
59104;BME280;51449;51.676;5.812;2023-04-30T12:20:14;102141.31;;;19.05;44.30
59104;BME280;51449;51.676;5.812;2023-04-30T12:22:36;102134.53;;;18.90;45.12
59104;BME280;51449;51.676;5.812;2023-04-30T12:24:59;102134.38;;;18.83;44.34
59104;BME280;51449;51.676;5.812;2023-04-30T12:27:22;102132.50;;;18.74;45.16
59104;BME280;51449;51.676;5.812;2023-04-30T12:29:44;102139.28;;;18.73;45.47
59104;BME280;51449;51.676;5.812;2023-04-30T12:32:07;102129.25;;;18.72;45.35
59104;BME280;51449;51.676;5.812;2023-04-30T12:34:29;102129.97;;;18.69;45.64
59104;BME280;51449;51.676;5.812;2023-04-30T12:36:56;102125.66;;;19.00;45.86
59104;BME280;51449;51.676;5.812;2023-04-30T12:39:18;102123.63;;;19.16;44.88
59104;BME280;51449;51.676;5.812;2023-04-30T12:41:42;102124.38;;;19.13;44.74
59104;BME280;51449;51.676;5.812;2023-04-30T12:46:41;102122.66;;;18.93;44.58
59104;BME280;51449;51.676;5.812;2023-04-30T12:49:04;102131.81;;;18.77;44.34
59104;BME280;51449;51.676;5.812;2023-04-30T12:51:26;102119.53;;;18.66;45.38
59104;BME280;51449;51.676;5.812;2023-04-30T12:53:48;102113.00;;;19.06;45.40